Porter, North Carolina
Current Conditions -  °F | °C
As of 7:35 AM on Saturday 25 Oct 2014 (Local Time) from KVUJ Reporting Station
Clear Clear  
Wind Chill: 34°   Ceiling: Unl
Heat Index: 34°   Visibility: 10mi
Dew Point: 33°   Wind: 0mph
Humidity: 97%   Direction: NA
Pressure: 30.08"   Gusts: NA
Location:  35.2152°N, 80.1663°W
Report Text: KVUJ 251135Z AUTO 00000KT 10SM CLR 01/01 A3008 RMK AO2 T00100006
Loading
Personal Weather Stations






























Interactive Weather Map
Tropical Storm Tracking
New forecast layout! Learn more

10-Day Weather Forecast

Advertisements
Track Severe Weather on mobile